sensor_id;sensor_type;location;lat;lon;timestamp;P1;durP1;ratioP1;P2;durP2;ratioP2
21032;SDS011;10675;47.976;7.824;2023-08-24T00:00:30;4.82;;;2.90;;
21032;SDS011;10675;47.976;7.824;2023-08-24T00:02:57;3.45;;;2.90;;
21032;SDS011;10675;47.976;7.824;2023-08-24T00:05:23;3.70;;;3.25;;
21032;SDS011;10675;47.976;7.824;2023-08-24T00:07:48;3.17;;;2.90;;
21032;SDS011;10675;47.976;7.824;2023-08-24T00:10:14;4.47;;;3.25;;
21032;SDS011;10675;47.976;7.824;2023-08-24T00:12:40;5.32;;;3.33;;
21032;SDS011;10675;47.976;7.824;2023-08-24T00:15:09;3.88;;;2.92;;
21032;SDS011;10675;47.976;7.824;2023-08-24T00:17:35;4.78;;;3.20;;
21032;SDS011;10675;47.976;7.824;2023-08-24T00:20:02;3.97;;;3.53;;
21032;SDS011;10675;47.976;7.824;2023-08-24T00:22:29;3.42;;;3.13;;
21032;SDS011;10675;47.976;7.824;2023-08-24T00:24:55;4.75;;;3.15;;
21032;SDS011;10675;47.976;7.824;2023-08-24T00:27:21;4.47;;;3.22;;
21032;SDS011;10675;47.976;7.824;2023-08-24T00:29:46;5.30;;;3.22;;
21032;SDS011;10675;47.976;7.824;2023-08-24T00:32:12;3.53;;;3.22;;
21032;SDS011;10675;47.976;7.824;2023-08-24T00:34:37;3.58;;;3.28;;
21032;SDS011;10675;47.976;7.824;2023-08-24T00:37:03;8.07;;;3.05;;
21032;SDS011;10675;47.976;7.824;2023-08-24T00:39:28;3.28;;;2.97;;
21032;SDS011;10675;47.976;7.824;2023-08-24T00:41:54;5.10;;;2.90;;
21032;SDS011;10675;47.976;7.824;2023-08-24T00:44:20;3.33;;;3.00;;
21032;SDS011;10675;47.976;7.824;2023-08-24T00:46:45;3.35;;;3.05;;
21032;SDS011;10675;47.976;7.824;2023-08-24T00:49:11;3.60;;;3.25;;
21032;SDS011;10675;47.976;7.824;2023-08-24T00:51:36;4.35;;;3.95;;
21032;SDS011;10675;47.976;7.824;2023-08-24T00:54:02;3.97;;;3.30;;
21032;SDS011;10675;47.976;7.824;2023-08-24T00:56:28;3.85;;;3.47;;
21032;SDS011;10675;47.976;7.824;2023-08-24T00:58:55;4.93;;;3.63;;
21032;SDS011;10675;47.976;7.824;2023-08-24T01:01:22;4.43;;;3.38;;
21032;SDS011;10675;47.976;7.824;2023-08-24T01:03:49;6.00;;;3.42;;
21032;SDS011;10675;47.976;7.824;2023-08-24T01:06:15;3.47;;;3.17;;
21032;SDS011;10675;47.976;7.824;2023-08-24T01:08:40;3.50;;;3.20;;
21032;SDS011;10675;47.976;7.824;2023-08-24T01:13:59;6.72;;;3.25;;
21032;SDS011;10675;47.976;7.824;2023-08-24T01:16:48;5.15;;;3.08;;
21032;SDS011;10675;47.976;7.824;2023-08-24T01:19:21;4.00;;;3.70;;
21032;SDS011;10675;47.976;7.824;2023-08-24T01:22:01;4.95;;;3.10;;
21032;SDS011;10675;47.976;7.824;2023-08-24T01:24:31;3.63;;;3.30;;
21032;SDS011;10675;47.976;7.824;2023-08-24T01:27:09;3.85;;;3.10;;
21032;SDS011;10675;47.976;7.824;2023-08-24T01:29:36;3.50;;;3.20;;
21032;SDS011;10675;47.976;7.824;2023-08-24T01:32:04;4.07;;;2.90;;
21032;SDS011;10675;47.976;7.824;2023-08-24T01:34:30;6.03;;;3.35;;
21032;SDS011;10675;47.976;7.824;2023-08-24T01:36:55;3.72;;;3.35;;
21032;SDS011;10675;47.976;7.824;2023-08-24T01:39:24;3.67;;;3.35;;
21032;SDS011;10675;47.976;7.824;2023-08-24T01:41:55;3.45;;;3.13;;
21032;SDS011;10675;47.976;7.824;2023-08-24T01:44:24;4.25;;;3.25;;
21032;SDS011;10675;47.976;7.824;2023-08-24T01:46:52;3.80;;;3.40;;
21032;SDS011;10675;47.976;7.824;2023-08-24T01:49:18;4.10;;;3.70;;
21032;SDS011;10675;47.976;7.824;2023-08-24T01:51:45;3.83;;;3.22;;
21032;SDS011;10675;47.976;7.824;2023-08-24T01:54:12;5.47;;;3.30;;
21032;SDS011;10675;47.976;7.824;2023-08-24T01:56:38;3.88;;;3.50;;
21032;SDS011;10675;47.976;7.824;2023-08-24T01:59:03;4.65;;;3.50;;
21032;SDS011;10675;47.976;7.824;2023-08-24T02:01:29;3.80;;;3.10;;
21032;SDS011;10675;47.976;7.824;2023-08-24T02:03:55;3.60;;;3.13;;
21032;SDS011;10675;47.976;7.824;2023-08-24T02:06:20;4.10;;;3.45;;
21032;SDS011;10675;47.976;7.824;2023-08-24T02:08:46;3.53;;;3.20;;
21032;SDS011;10675;47.976;7.824;2023-08-24T02:11:12;5.68;;;3.30;;
21032;SDS011;10675;47.976;7.824;2023-08-24T02:13:37;6.25;;;3.40;;
21032;SDS011;10675;47.976;7.824;2023-08-24T02:16:07;5.78;;;3.50;;
21032;SDS011;10675;47.976;7.824;2023-08-24T02:18:39;3.92;;;3.55;;
21032;SDS011;10675;47.976;7.824;2023-08-24T02:21:09;3.65;;;3.30;;
21032;SDS011;10675;47.976;7.824;2023-08-24T02:23:36;3.70;;;3.40;;
21032;SDS011;10675;47.976;7.824;2023-08-24T02:26:02;5.03;;;3.03;;
21032;SDS011;10675;47.976;7.824;2023-08-24T02:28:29;4.10;;;3.60;;
21032;SDS011;10675;47.976;7.824;2023-08-24T02:30:54;8.77;;;3.47;;
21032;SDS011;10675;47.976;7.824;2023-08-24T02:33:24;4.80;;;3.35;;
21032;SDS011;10675;47.976;7.824;2023-08-24T02:35:50;3.83;;;3.22;;
21032;SDS011;10675;47.976;7.824;2023-08-24T02:38:16;4.53;;;3.33;;
21032;SDS011;10675;47.976;7.824;2023-08-24T02:40:41;3.65;;;3.33;;
21032;SDS011;10675;47.976;7.824;2023-08-24T02:43:07;4.10;;;3.25;;
21032;SDS011;10675;47.976;7.824;2023-08-24T02:45:32;4.53;;;3.58;;
21032;SDS011;10675;47.976;7.824;2023-08-24T02:47:58;3.72;;;3.10;;
21032;SDS011;10675;47.976;7.824;2023-08-24T02:50:23;4.35;;;3.35;;
21032;SDS011;10675;47.976;7.824;2023-08-24T02:52:49;4.20;;;3.80;;
21032;SDS011;10675;47.976;7.824;2023-08-24T02:55:16;3.42;;;3.13;;
21032;SDS011;10675;47.976;7.824;2023-08-24T02:57:42;3.95;;;3.60;;
21032;SDS011;10675;47.976;7.824;2023-08-24T03:00:07;4.65;;;3.08;;
21032;SDS011;10675;47.976;7.824;2023-08-24T03:02:34;3.13;;;2.88;;
21032;SDS011;10675;47.976;7.824;2023-08-24T03:05:01;4.03;;;3.67;;
21032;SDS011;10675;47.976;7.824;2023-08-24T03:07:27;3.90;;;3.50;;
21032;SDS011;10675;47.976;7.824;2023-08-24T03:09:53;3.85;;;3.30;;
21032;SDS011;10675;47.976;7.824;2023-08-24T03:12:18;3.92;;;3.55;;
21032;SDS011;10675;47.976;7.824;2023-08-24T03:14:44;3.78;;;3.40;;
21032;SDS011;10675;47.976;7.824;2023-08-24T03:17:09;3.67;;;3.08;;
21032;SDS011;10675;47.976;7.824;2023-08-24T03:19:35;4.03;;;3.20;;
21032;SDS011;10675;47.976;7.824;2023-08-24T03:22:00;3.58;;;3.28;;
21032;SDS011;10675;47.976;7.824;2023-08-24T03:24:26;3.58;;;3.03;;
21032;SDS011;10675;47.976;7.824;2023-08-24T03:26:51;4.90;;;3.70;;
21032;SDS011;10675;47.976;7.824;2023-08-24T03:29:17;4.25;;;3.15;;
21032;SDS011;10675;47.976;7.824;2023-08-24T03:31:42;4.75;;;3.60;;
21032;SDS011;10675;47.976;7.824;2023-08-24T03:34:08;4.05;;;3.42;;
21032;SDS011;10675;47.976;7.824;2023-08-24T03:36:33;3.85;;;3.55;;
21032;SDS011;10675;47.976;7.824;2023-08-24T03:38:59;3.90;;;3.60;;
21032;SDS011;10675;47.976;7.824;2023-08-24T03:41:24;3.70;;;3.25;;
21032;SDS011;10675;47.976;7.824;2023-08-24T03:43:50;3.20;;;2.90;;
21032;SDS011;10675;47.976;7.824;2023-08-24T03:46:15;3.72;;;3.42;;
21032;SDS011;10675;47.976;7.824;2023-08-24T03:48:41;4.00;;;3.40;;
21032;SDS011;10675;47.976;7.824;2023-08-24T03:51:06;4.97;;;3.60;;
21032;SDS011;10675;47.976;7.824;2023-08-24T03:53:32;3.67;;;3.25;;
21032;SDS011;10675;47.976;7.824;2023-08-24T03:55:57;4.78;;;3.42;;
21032;SDS011;10675;47.976;7.824;2023-08-24T03:58:23;3.67;;;3.38;;
21032;SDS011;10675;47.976;7.824;2023-08-24T04:00:49;3.65;;;3.35;;
21032;SDS011;10675;47.976;7.824;2023-08-24T04:03:15;3.67;;;3.38;;
21032;SDS011;10675;47.976;7.824;2023-08-24T04:05:40;3.65;;;3.35;;
21032;SDS011;10675;47.976;7.824;2023-08-24T04:08:06;3.83;;;3.45;;
21032;SDS011;10675;47.976;7.824;2023-08-24T04:10:32;3.38;;;3.08;;
21032;SDS011;10675;47.976;7.824;2023-08-24T04:12:58;4.57;;;3.60;;
21032;SDS011;10675;47.976;7.824;2023-08-24T04:15:23;3.60;;;3.30;;
21032;SDS011;10675;47.976;7.824;2023-08-24T04:17:49;4.22;;;3.28;;
21032;SDS011;10675;47.976;7.824;2023-08-24T04:20:15;4.70;;;3.13;;
21032;SDS011;10675;47.976;7.824;2023-08-24T04:22:41;3.70;;;3.25;;
21032;SDS011;10675;47.976;7.824;2023-08-24T04:25:07;4.55;;;3.75;;
21032;SDS011;10675;47.976;7.824;2023-08-24T04:27:33;5.97;;;3.83;;
21032;SDS011;10675;47.976;7.824;2023-08-24T04:29:58;3.90;;;3.55;;
21032;SDS011;10675;47.976;7.824;2023-08-24T04:32:24;3.45;;;3.17;;
21032;SDS011;10675;47.976;7.824;2023-08-24T04:34:49;5.32;;;3.53;;
21032;SDS011;10675;47.976;7.824;2023-08-24T04:37:15;3.70;;;3.30;;
21032;SDS011;10675;47.976;7.824;2023-08-24T04:39:40;4.05;;;3.60;;
21032;SDS011;10675;47.976;7.824;2023-08-24T04:42:06;3.30;;;3.00;;
21032;SDS011;10675;47.976;7.824;2023-08-24T04:44:32;5.35;;;3.50;;
21032;SDS011;10675;47.976;7.824;2023-08-24T04:46:58;5.90;;;3.53;;
21032;SDS011;10675;47.976;7.824;2023-08-24T04:49:24;3.70;;;3.40;;
21032;SDS011;10675;47.976;7.824;2023-08-24T04:51:49;4.47;;;3.60;;
21032;SDS011;10675;47.976;7.824;2023-08-24T04:54:15;4.80;;;3.65;;
21032;SDS011;10675;47.976;7.824;2023-08-24T04:56:40;4.35;;;3.83;;
21032;SDS011;10675;47.976;7.824;2023-08-24T04:59:06;3.97;;;3.58;;
21032;SDS011;10675;47.976;7.824;2023-08-24T05:01:32;6.13;;;3.75;;
21032;SDS011;10675;47.976;7.824;2023-08-24T05:03:59;3.78;;;3.47;;
21032;SDS011;10675;47.976;7.824;2023-08-24T05:06:24;3.72;;;3.13;;
21032;SDS011;10675;47.976;7.824;2023-08-24T05:08:50;4.22;;;3.72;;
21032;SDS011;10675;47.976;7.824;2023-08-24T05:11:19;6.43;;;3.55;;
21032;SDS011;10675;47.976;7.824;2023-08-24T05:13:47;6.20;;;3.50;;
21032;SDS011;10675;47.976;7.824;2023-08-24T05:16:13;3.90;;;3.58;;
21032;SDS011;10675;47.976;7.824;2023-08-24T05:18:39;5.70;;;3.55;;
21032;SDS011;10675;47.976;7.824;2023-08-24T05:21:05;5.45;;;3.60;;
21032;SDS011;10675;47.976;7.824;2023-08-24T05:23:31;6.78;;;3.65;;
21032;SDS011;10675;47.976;7.824;2023-08-24T05:25:57;6.07;;;3.40;;
21032;SDS011;10675;47.976;7.824;2023-08-24T05:28:23;3.33;;;3.03;;
21032;SDS011;10675;47.976;7.824;2023-08-24T05:30:50;3.75;;;3.42;;
21032;SDS011;10675;47.976;7.824;2023-08-24T05:33:19;4.40;;;3.63;;
21032;SDS011;10675;47.976;7.824;2023-08-24T05:35:46;4.30;;;3.90;;
21032;SDS011;10675;47.976;7.824;2023-08-24T05:38:13;4.10;;;3.30;;
21032;SDS011;10675;47.976;7.824;2023-08-24T05:40:42;5.22;;;3.70;;
21032;SDS011;10675;47.976;7.824;2023-08-24T05:43:08;6.07;;;3.72;;
21032;SDS011;10675;47.976;7.824;2023-08-24T05:45:37;5.03;;;3.40;;
21032;SDS011;10675;47.976;7.824;2023-08-24T05:48:04;3.95;;;3.60;;
21032;SDS011;10675;47.976;7.824;2023-08-24T05:50:30;6.82;;;4.43;;
21032;SDS011;10675;47.976;7.824;2023-08-24T05:52:56;5.00;;;4.60;;
21032;SDS011;10675;47.976;7.824;2023-08-24T05:55:21;6.10;;;3.92;;
21032;SDS011;10675;47.976;7.824;2023-08-24T05:57:47;4.82;;;4.30;;
21032;SDS011;10675;47.976;7.824;2023-08-24T06:00:13;5.63;;;5.00;;
21032;SDS011;10675;47.976;7.824;2023-08-24T06:02:39;5.50;;;4.43;;
21032;SDS011;10675;47.976;7.824;2023-08-24T06:05:05;4.95;;;4.03;;
21032;SDS011;10675;47.976;7.824;2023-08-24T06:07:32;6.30;;;4.25;;
21032;SDS011;10675;47.976;7.824;2023-08-24T06:09:58;5.13;;;4.25;;
21032;SDS011;10675;47.976;7.824;2023-08-24T06:12:24;7.05;;;4.65;;
21032;SDS011;10675;47.976;7.824;2023-08-24T06:14:49;4.68;;;4.28;;
21032;SDS011;10675;47.976;7.824;2023-08-24T06:17:15;5.72;;;4.25;;
21032;SDS011;10675;47.976;7.824;2023-08-24T06:19:40;5.40;;;3.95;;
21032;SDS011;10675;47.976;7.824;2023-08-24T06:22:06;4.50;;;4.10;;
21032;SDS011;10675;47.976;7.824;2023-08-24T06:24:32;4.53;;;4.13;;
21032;SDS011;10675;47.976;7.824;2023-08-24T06:26:57;4.78;;;4.05;;
21032;SDS011;10675;47.976;7.824;2023-08-24T06:29:23;4.65;;;4.10;;
21032;SDS011;10675;47.976;7.824;2023-08-24T06:31:49;4.53;;;4.13;;
21032;SDS011;10675;47.976;7.824;2023-08-24T06:34:14;4.80;;;4.10;;
21032;SDS011;10675;47.976;7.824;2023-08-24T06:36:40;5.55;;;4.07;;
21032;SDS011;10675;47.976;7.824;2023-08-24T06:39:05;5.03;;;4.13;;
21032;SDS011;10675;47.976;7.824;2023-08-24T06:41:34;5.82;;;4.60;;
21032;SDS011;10675;47.976;7.824;2023-08-24T06:44:00;5.20;;;4.55;;
21032;SDS011;10675;47.976;7.824;2023-08-24T06:46:26;5.03;;;4.53;;
21032;SDS011;10675;47.976;7.824;2023-08-24T06:48:52;7.03;;;4.43;;
21032;SDS011;10675;47.976;7.824;2023-08-24T06:51:17;7.65;;;4.60;;
21032;SDS011;10675;47.976;7.824;2023-08-24T06:53:43;4.30;;;3.90;;
21032;SDS011;10675;47.976;7.824;2023-08-24T06:56:09;5.05;;;4.55;;
21032;SDS011;10675;47.976;7.824;2023-08-24T06:58:35;4.35;;;3.90;;
21032;SDS011;10675;47.976;7.824;2023-08-24T07:01:00;4.50;;;3.97;;
21032;SDS011;10675;47.976;7.824;2023-08-24T07:03:30;7.53;;;4.65;;
21032;SDS011;10675;47.976;7.824;2023-08-24T07:05:57;4.85;;;4.00;;
21032;SDS011;10675;47.976;7.824;2023-08-24T07:08:23;5.72;;;4.60;;
21032;SDS011;10675;47.976;7.824;2023-08-24T07:10:48;5.00;;;3.95;;
21032;SDS011;10675;47.976;7.824;2023-08-24T07:13:14;6.57;;;4.55;;
21032;SDS011;10675;47.976;7.824;2023-08-24T07:15:39;6.75;;;3.92;;
21032;SDS011;10675;47.976;7.824;2023-08-24T07:18:05;6.95;;;4.50;;
21032;SDS011;10675;47.976;7.824;2023-08-24T07:20:32;6.72;;;4.22;;
21032;SDS011;10675;47.976;7.824;2023-08-24T07:22:58;4.53;;;4.07;;
21032;SDS011;10675;47.976;7.824;2023-08-24T07:25:23;6.90;;;4.53;;
21032;SDS011;10675;47.976;7.824;2023-08-24T07:27:49;6.05;;;4.20;;
21032;SDS011;10675;47.976;7.824;2023-08-24T07:30:14;5.03;;;4.05;;
21032;SDS011;10675;47.976;7.824;2023-08-24T07:32:40;10.35;;;4.82;;
21032;SDS011;10675;47.976;7.824;2023-08-24T07:35:06;5.07;;;3.75;;
21032;SDS011;10675;47.976;7.824;2023-08-24T07:37:32;5.90;;;4.32;;
21032;SDS011;10675;47.976;7.824;2023-08-24T07:39:58;4.18;;;3.55;;
21032;SDS011;10675;47.976;7.824;2023-08-24T07:42:23;6.25;;;3.88;;
21032;SDS011;10675;47.976;7.824;2023-08-24T07:44:49;4.68;;;3.97;;
21032;SDS011;10675;47.976;7.824;2023-08-24T07:47:15;4.57;;;3.92;;
21032;SDS011;10675;47.976;7.824;2023-08-24T07:49:41;4.47;;;3.65;;
21032;SDS011;10675;47.976;7.824;2023-08-24T07:52:12;6.03;;;3.65;;
21032;SDS011;10675;47.976;7.824;2023-08-24T07:54:38;5.65;;;3.60;;
21032;SDS011;10675;47.976;7.824;2023-08-24T07:57:07;6.55;;;4.20;;
21032;SDS011;10675;47.976;7.824;2023-08-24T07:59:32;5.63;;;3.97;;
21032;SDS011;10675;47.976;7.824;2023-08-24T08:01:58;5.40;;;3.80;;
21032;SDS011;10675;47.976;7.824;2023-08-24T08:04:23;7.10;;;3.50;;
21032;SDS011;10675;47.976;7.824;2023-08-24T08:06:49;3.67;;;3.33;;
21032;SDS011;10675;47.976;7.824;2023-08-24T08:09:14;6.05;;;3.38;;
21032;SDS011;10675;47.976;7.824;2023-08-24T08:11:41;3.70;;;3.30;;
21032;SDS011;10675;47.976;7.824;2023-08-24T08:14:07;3.92;;;3.63;;
21032;SDS011;10675;47.976;7.824;2023-08-24T08:16:33;5.22;;;3.50;;
21032;SDS011;10675;47.976;7.824;2023-08-24T08:18:59;4.90;;;3.63;;
21032;SDS011;10675;47.976;7.824;2023-08-24T08:21:25;5.30;;;3.38;;
21032;SDS011;10675;47.976;7.824;2023-08-24T08:23:50;5.78;;;3.30;;
21032;SDS011;10675;47.976;7.824;2023-08-24T08:26:16;3.90;;;3.55;;
21032;SDS011;10675;47.976;7.824;2023-08-24T08:28:42;3.83;;;3.53;;
21032;SDS011;10675;47.976;7.824;2023-08-24T08:31:07;5.05;;;3.17;;
21032;SDS011;10675;47.976;7.824;2023-08-24T08:33:33;4.65;;;3.75;;
21032;SDS011;10675;47.976;7.824;2023-08-24T08:35:58;5.57;;;3.60;;
21032;SDS011;10675;47.976;7.824;2023-08-24T08:38:24;4.03;;;3.30;;
21032;SDS011;10675;47.976;7.824;2023-08-24T08:40:56;4.13;;;3.40;;
21032;SDS011;10675;47.976;7.824;2023-08-24T08:43:27;4.88;;;3.17;;
21032;SDS011;10675;47.976;7.824;2023-08-24T08:45:52;6.20;;;3.97;;
21032;SDS011;10675;47.976;7.824;2023-08-24T08:48:21;5.82;;;3.70;;
21032;SDS011;10675;47.976;7.824;2023-08-24T08:50:48;4.72;;;3.80;;
21032;SDS011;10675;47.976;7.824;2023-08-24T08:53:14;4.07;;;3.10;;
21032;SDS011;10675;47.976;7.824;2023-08-24T08:55:40;6.85;;;3.97;;
21032;SDS011;10675;47.976;7.824;2023-08-24T08:58:06;4.60;;;3.72;;
21032;SDS011;10675;47.976;7.824;2023-08-24T09:00:33;4.10;;;3.70;;
21032;SDS011;10675;47.976;7.824;2023-08-24T09:05:30;4.30;;;3.28;;
21032;SDS011;10675;47.976;7.824;2023-08-24T09:07:56;4.22;;;3.35;;
21032;SDS011;10675;47.976;7.824;2023-08-24T09:10:23;5.03;;;3.72;;
21032;SDS011;10675;47.976;7.824;2023-08-24T09:12:49;9.95;;;3.83;;
21032;SDS011;10675;47.976;7.824;2023-08-24T09:15:14;4.20;;;3.60;;
21032;SDS011;10675;47.976;7.824;2023-08-24T09:17:49;4.47;;;3.75;;
21032;SDS011;10675;47.976;7.824;2023-08-24T09:20:14;9.65;;;3.72;;
21032;SDS011;10675;47.976;7.824;2023-08-24T09:22:40;5.05;;;3.88;;
21032;SDS011;10675;47.976;7.824;2023-08-24T09:25:08;4.03;;;3.50;;
21032;SDS011;10675;47.976;7.824;2023-08-24T09:27:35;4.28;;;3.80;;
21032;SDS011;10675;47.976;7.824;2023-08-24T09:30:00;3.50;;;3.20;;
21032;SDS011;10675;47.976;7.824;2023-08-24T09:32:29;4.43;;;3.55;;
21032;SDS011;10675;47.976;7.824;2023-08-24T09:35:09;4.65;;;3.70;;
21032;SDS011;10675;47.976;7.824;2023-08-24T09:37:35;4.72;;;3.53;;
21032;SDS011;10675;47.976;7.824;2023-08-24T09:40:06;4.25;;;3.80;;
21032;SDS011;10675;47.976;7.824;2023-08-24T09:42:42;9.77;;;3.58;;
21032;SDS011;10675;47.976;7.824;2023-08-24T09:45:08;6.82;;;3.85;;
21032;SDS011;10675;47.976;7.824;2023-08-24T09:47:37;4.43;;;3.35;;
21032;SDS011;10675;47.976;7.824;2023-08-24T09:50:03;4.38;;;3.92;;
21032;SDS011;10675;47.976;7.824;2023-08-24T09:52:33;4.03;;;3.53;;
21032;SDS011;10675;47.976;7.824;2023-08-24T09:55:03;3.90;;;3.50;;
21032;SDS011;10675;47.976;7.824;2023-08-24T09:57:35;3.90;;;3.60;;
21032;SDS011;10675;47.976;7.824;2023-08-24T10:00:04;3.60;;;3.30;;
21032;SDS011;10675;47.976;7.824;2023-08-24T10:02:35;6.10;;;3.90;;
21032;SDS011;10675;47.976;7.824;2023-08-24T10:05:07;3.58;;;3.30;;
21032;SDS011;10675;47.976;7.824;2023-08-24T10:07:33;4.18;;;3.33;;
21032;SDS011;10675;47.976;7.824;2023-08-24T10:10:06;4.93;;;3.30;;
21032;SDS011;10675;47.976;7.824;2023-08-24T10:12:36;3.83;;;3.40;;
21032;SDS011;10675;47.976;7.824;2023-08-24T10:15:07;6.03;;;3.90;;
21032;SDS011;10675;47.976;7.824;2023-08-24T10:17:35;7.53;;;3.60;;
21032;SDS011;10675;47.976;7.824;2023-08-24T10:20:02;4.63;;;3.45;;
21032;SDS011;10675;47.976;7.824;2023-08-24T10:22:31;6.85;;;3.97;;
21032;SDS011;10675;47.976;7.824;2023-08-24T10:24:59;4.30;;;3.90;;
21032;SDS011;10675;47.976;7.824;2023-08-24T10:27:26;5.22;;;3.70;;
21032;SDS011;10675;47.976;7.824;2023-08-24T10:29:52;3.83;;;3.40;;
21032;SDS011;10675;47.976;7.824;2023-08-24T10:32:21;3.85;;;3.55;;
21032;SDS011;10675;47.976;7.824;2023-08-24T10:34:49;4.38;;;3.50;;
21032;SDS011;10675;47.976;7.824;2023-08-24T10:37:15;5.03;;;3.40;;
21032;SDS011;10675;47.976;7.824;2023-08-24T10:39:44;4.68;;;3.45;;
21032;SDS011;10675;47.976;7.824;2023-08-24T10:42:11;4.53;;;3.28;;
21032;SDS011;10675;47.976;7.824;2023-08-24T10:44:39;3.40;;;3.10;;
21032;SDS011;10675;47.976;7.824;2023-08-24T10:47:15;4.35;;;3.70;;
21032;SDS011;10675;47.976;7.824;2023-08-24T10:49:43;5.05;;;3.25;;
21032;SDS011;10675;47.976;7.824;2023-08-24T10:54:55;4.38;;;3.13;;
21032;SDS011;10675;47.976;7.824;2023-08-24T10:57:27;7.13;;;3.63;;
21032;SDS011;10675;47.976;7.824;2023-08-24T11:02:47;6.00;;;3.53;;
21032;SDS011;10675;47.976;7.824;2023-08-24T11:08:04;3.95;;;3.33;;
21032;SDS011;10675;47.976;7.824;2023-08-24T11:13:09;3.97;;;3.63;;
21032;SDS011;10675;47.976;7.824;2023-08-24T11:15:45;5.70;;;3.65;;
21032;SDS011;10675;47.976;7.824;2023-08-24T11:18:21;5.88;;;3.28;;
21032;SDS011;10675;47.976;7.824;2023-08-24T11:21:04;4.88;;;3.85;;
21032;SDS011;10675;47.976;7.824;2023-08-24T11:23:31;4.72;;;3.42;;
21032;SDS011;10675;47.976;7.824;2023-08-24T11:25:57;4.68;;;3.60;;
21032;SDS011;10675;47.976;7.824;2023-08-24T11:28:27;4.07;;;3.22;;
21032;SDS011;10675;47.976;7.824;2023-08-24T11:30:55;3.65;;;3.35;;
21032;SDS011;10675;47.976;7.824;2023-08-24T11:33:34;4.00;;;2.97;;
21032;SDS011;10675;47.976;7.824;2023-08-24T11:36:00;3.78;;;3.00;;
21032;SDS011;10675;47.976;7.824;2023-08-24T11:38:35;5.20;;;3.42;;
21032;SDS011;10675;47.976;7.824;2023-08-24T11:41:16;6.55;;;3.15;;
21032;SDS011;10675;47.976;7.824;2023-08-24T11:43:43;3.33;;;3.03;;
21032;SDS011;10675;47.976;7.824;2023-08-24T11:46:10;3.55;;;3.25;;
21032;SDS011;10675;47.976;7.824;2023-08-24T11:48:37;5.03;;;3.20;;
21032;SDS011;10675;47.976;7.824;2023-08-24T11:51:07;4.40;;;3.45;;
21032;SDS011;10675;47.976;7.824;2023-08-24T11:53:38;4.60;;;3.50;;
21032;SDS011;10675;47.976;7.824;2023-08-24T11:56:16;7.65;;;3.45;;
21032;SDS011;10675;47.976;7.824;2023-08-24T11:58:43;3.65;;;2.97;;
21032;SDS011;10675;47.976;7.824;2023-08-24T12:01:12;4.18;;;3.00;;
21032;SDS011;10675;47.976;7.824;2023-08-24T12:03:38;9.52;;;3.20;;
21032;SDS011;10675;47.976;7.824;2023-08-24T12:06:10;4.57;;;3.60;;
21032;SDS011;10675;47.976;7.824;2023-08-24T12:08:41;5.72;;;3.30;;
21032;SDS011;10675;47.976;7.824;2023-08-24T12:11:14;5.82;;;3.38;;
21032;SDS011;10675;47.976;7.824;2023-08-24T12:13:44;6.45;;;3.30;;
21032;SDS011;10675;47.976;7.824;2023-08-24T12:16:17;4.05;;;3.72;;
21032;SDS011;10675;47.976;7.824;2023-08-24T12:18:57;5.22;;;3.40;;
21032;SDS011;10675;47.976;7.824;2023-08-24T12:21:30;5.47;;;3.30;;
21032;SDS011;10675;47.976;7.824;2023-08-24T12:26:25;3.60;;;3.30;;
21032;SDS011;10675;47.976;7.824;2023-08-24T12:28:52;3.53;;;3.20;;
21032;SDS011;10675;47.976;7.824;2023-08-24T12:31:18;5.72;;;3.60;;
21032;SDS011;10675;47.976;7.824;2023-08-24T12:33:44;5.43;;;2.97;;
21032;SDS011;10675;47.976;7.824;2023-08-24T12:36:10;6.28;;;4.07;;
21032;SDS011;10675;47.976;7.824;2023-08-24T12:38:36;4.32;;;3.47;;
21032;SDS011;10675;47.976;7.824;2023-08-24T12:41:02;6.25;;;3.05;;
21032;SDS011;10675;47.976;7.824;2023-08-24T12:43:27;9.68;;;3.20;;
21032;SDS011;10675;47.976;7.824;2023-08-24T12:45:53;6.30;;;3.50;;
21032;SDS011;10675;47.976;7.824;2023-08-24T12:48:18;6.35;;;3.10;;
21032;SDS011;10675;47.976;7.824;2023-08-24T12:50:44;5.43;;;3.13;;
21032;SDS011;10675;47.976;7.824;2023-08-24T12:53:10;7.70;;;3.50;;
21032;SDS011;10675;47.976;7.824;2023-08-24T12:55:36;4.65;;;3.55;;
21032;SDS011;10675;47.976;7.824;2023-08-24T12:58:03;3.40;;;3.03;;
21032;SDS011;10675;47.976;7.824;2023-08-24T13:00:29;4.47;;;3.50;;
21032;SDS011;10675;47.976;7.824;2023-08-24T13:02:54;5.97;;;3.72;;
21032;SDS011;10675;47.976;7.824;2023-08-24T13:05:20;8.90;;;3.42;;
21032;SDS011;10675;47.976;7.824;2023-08-24T13:07:46;4.70;;;3.00;;
21032;SDS011;10675;47.976;7.824;2023-08-24T13:10:11;4.55;;;3.15;;
21032;SDS011;10675;47.976;7.824;2023-08-24T13:12:37;8.75;;;3.10;;
21032;SDS011;10675;47.976;7.824;2023-08-24T13:15:03;5.63;;;3.63;;
21032;SDS011;10675;47.976;7.824;2023-08-24T13:17:30;4.47;;;3.22;;
21032;SDS011;10675;47.976;7.824;2023-08-24T13:19:56;6.25;;;3.10;;
21032;SDS011;10675;47.976;7.824;2023-08-24T13:22:21;5.47;;;3.38;;
21032;SDS011;10675;47.976;7.824;2023-08-24T13:24:47;8.48;;;3.78;;
21032;SDS011;10675;47.976;7.824;2023-08-24T13:27:12;9.18;;;2.95;;
21032;SDS011;10675;47.976;7.824;2023-08-24T13:29:38;5.60;;;3.00;;
21032;SDS011;10675;47.976;7.824;2023-08-24T13:32:05;4.88;;;3.05;;
21032;SDS011;10675;47.976;7.824;2023-08-24T13:34:31;4.32;;;3.20;;
21032;SDS011;10675;47.976;7.824;2023-08-24T13:36:58;6.47;;;3.28;;
21032;SDS011;10675;47.976;7.824;2023-08-24T13:39:27;6.25;;;3.00;;
21032;SDS011;10675;47.976;7.824;2023-08-24T13:41:57;4.93;;;3.00;;
21032;SDS011;10675;47.976;7.824;2023-08-24T13:44:24;5.82;;;3.08;;
21032;SDS011;10675;47.976;7.824;2023-08-24T13:46:50;6.38;;;3.05;;
21032;SDS011;10675;47.976;7.824;2023-08-24T13:49:17;7.82;;;3.08;;
21032;SDS011;10675;47.976;7.824;2023-08-24T13:51:43;11.10;;;3.20;;
21032;SDS011;10675;47.976;7.824;2023-08-24T13:54:16;7.95;;;3.17;;
21032;SDS011;10675;47.976;7.824;2023-08-24T13:56:46;6.75;;;2.50;;
21032;SDS011;10675;47.976;7.824;2023-08-24T13:59:13;4.70;;;2.97;;
21032;SDS011;10675;47.976;7.824;2023-08-24T14:01:39;6.97;;;2.60;;
21032;SDS011;10675;47.976;7.824;2023-08-24T14:04:05;7.57;;;2.72;;
21032;SDS011;10675;47.976;7.824;2023-08-24T14:06:32;4.60;;;2.40;;
21032;SDS011;10675;47.976;7.824;2023-08-24T14:08:59;6.97;;;2.67;;
21032;SDS011;10675;47.976;7.824;2023-08-24T14:11:25;6.53;;;2.90;;
21032;SDS011;10675;47.976;7.824;2023-08-24T14:13:52;8.85;;;2.80;;
21032;SDS011;10675;47.976;7.824;2023-08-24T14:16:18;9.02;;;2.50;;
21032;SDS011;10675;47.976;7.824;2023-08-24T14:18:44;4.60;;;2.58;;
21032;SDS011;10675;47.976;7.824;2023-08-24T14:21:10;6.32;;;2.60;;
21032;SDS011;10675;47.976;7.824;2023-08-24T14:23:36;7.97;;;3.10;;
21032;SDS011;10675;47.976;7.824;2023-08-24T14:26:01;6.68;;;2.60;;
21032;SDS011;10675;47.976;7.824;2023-08-24T14:28:48;6.00;;;2.72;;
21032;SDS011;10675;47.976;7.824;2023-08-24T14:31:20;5.10;;;2.78;;
21032;SDS011;10675;47.976;7.824;2023-08-24T14:33:49;8.63;;;2.63;;
21032;SDS011;10675;47.976;7.824;2023-08-24T14:36:16;3.83;;;2.97;;
21032;SDS011;10675;47.976;7.824;2023-08-24T14:38:42;4.72;;;2.60;;
21032;SDS011;10675;47.976;7.824;2023-08-24T14:41:11;5.88;;;2.60;;
21032;SDS011;10675;47.976;7.824;2023-08-24T14:43:37;3.28;;;2.38;;
21032;SDS011;10675;47.976;7.824;2023-08-24T14:46:04;3.40;;;2.25;;
21032;SDS011;10675;47.976;7.824;2023-08-24T14:48:30;6.85;;;2.92;;
21032;SDS011;10675;47.976;7.824;2023-08-24T14:50:55;5.95;;;2.72;;
21032;SDS011;10675;47.976;7.824;2023-08-24T14:53:24;10.38;;;3.05;;
21032;SDS011;10675;47.976;7.824;2023-08-24T14:55:54;11.05;;;2.75;;
21032;SDS011;10675;47.976;7.824;2023-08-24T14:58:23;6.03;;;2.80;;
21032;SDS011;10675;47.976;7.824;2023-08-24T15:00:50;4.75;;;2.80;;
21032;SDS011;10675;47.976;7.824;2023-08-24T15:03:16;4.72;;;2.53;;
21032;SDS011;10675;47.976;7.824;2023-08-24T15:05:46;7.38;;;2.97;;